createdAt,value
2022-09-06T00:00:33.110Z,979.54
2022-09-06T00:01:12.056Z,979.53
2022-09-06T00:02:11.965Z,979.51
2022-09-06T00:03:11.923Z,979.52
2022-09-06T00:04:15.162Z,979.51
2022-09-06T00:05:11.736Z,979.45
2022-09-06T00:06:32.642Z,979.44
2022-09-06T00:07:11.593Z,979.45
2022-09-06T00:08:11.514Z,979.41
2022-09-06T00:09:11.436Z,979.44
2022-09-06T00:10:11.357Z,979.44
2022-09-06T00:11:11.281Z,979.46
2022-09-06T00:12:32.183Z,979.45
2022-09-06T00:13:11.128Z,979.45
2022-09-06T00:14:11.045Z,979.41
2022-09-06T00:15:10.965Z,979.45
2022-09-06T00:16:11.067Z,979.44
2022-09-06T00:17:10.819Z,979.40
2022-09-06T00:18:31.713Z,979.42
2022-09-06T00:19:10.661Z,979.43
2022-09-06T00:20:10.591Z,979.45
2022-09-06T00:21:10.514Z,979.44
2022-09-06T00:22:10.424Z,979.43
2022-09-06T00:23:10.361Z,979.41
2022-09-06T00:24:31.271Z,979.48
2022-09-06T00:25:10.201Z,979.39
2022-09-06T00:26:10.125Z,979.42
2022-09-06T00:27:10.041Z,979.40
2022-09-06T00:28:09.974Z,979.39
2022-09-06T00:29:09.909Z,979.46
2022-09-06T00:30:30.797Z,979.44
2022-09-06T00:31:09.794Z,979.49
2022-09-06T00:32:09.661Z,979.52
2022-09-06T00:33:09.595Z,979.53
2022-09-06T00:34:09.512Z,979.52
2022-09-06T00:35:09.444Z,979.53
2022-09-06T00:36:30.335Z,979.52
2022-09-06T00:37:09.279Z,979.55
2022-09-06T00:38:09.209Z,979.53
2022-09-06T00:39:09.121Z,979.49
2022-09-06T00:40:09.091Z,979.45
2022-09-06T00:41:08.981Z,979.44
2022-09-06T00:42:29.866Z,979.43
2022-09-06T00:43:08.819Z,979.45
2022-09-06T00:44:08.734Z,979.46
2022-09-06T00:45:08.658Z,979.51
2022-09-06T00:46:08.621Z,979.49
2022-09-06T00:47:08.521Z,979.48
2022-09-06T00:48:29.424Z,979.47
2022-09-06T00:49:08.355Z,979.49
2022-09-06T00:50:08.277Z,979.47
2022-09-06T00:51:08.227Z,979.52
2022-09-06T00:52:08.140Z,979.48
2022-09-06T00:53:08.046Z,979.53
2022-09-06T00:54:28.949Z,979.50
2022-09-06T00:55:07.893Z,979.50
2022-09-06T00:56:07.814Z,979.52
2022-09-06T00:57:07.733Z,979.55
2022-09-06T00:58:07.665Z,979.52
2022-09-06T00:59:07.586Z,979.53
2022-09-06T01:00:28.479Z,979.54
2022-09-06T01:01:07.468Z,979.56
2022-09-06T01:02:07.423Z,979.60
2022-09-06T01:03:07.269Z,979.60
2022-09-06T01:04:07.191Z,979.63
2022-09-06T01:05:07.136Z,979.65
2022-09-06T01:06:28.033Z,979.63
2022-09-06T01:07:06.965Z,979.63
2022-09-06T01:08:06.879Z,979.66
2022-09-06T01:09:06.829Z,979.64
2022-09-06T01:10:06.728Z,979.65
2022-09-06T01:11:06.657Z,979.63
2022-09-06T01:12:27.581Z,979.61
2022-09-06T01:13:06.507Z,979.56
2022-09-06T01:14:06.439Z,979.56
2022-09-06T01:15:06.356Z,979.59
2022-09-06T01:16:06.302Z,979.57
2022-09-06T01:17:06.208Z,979.57
2022-09-06T01:18:27.175Z,979.57
2022-09-06T01:19:06.052Z,979.57
2022-09-06T01:20:05.964Z,979.60
2022-09-06T01:21:05.900Z,979.58
2022-09-06T01:22:05.802Z,979.59
2022-09-06T01:23:05.742Z,979.58
2022-09-06T01:24:26.642Z,979.60
2022-09-06T01:25:05.579Z,979.55
2022-09-06T01:26:05.504Z,979.58
2022-09-06T01:27:05.435Z,979.59
2022-09-06T01:28:05.345Z,979.56
2022-09-06T01:29:05.264Z,979.57
2022-09-06T01:30:26.169Z,979.58
2022-09-06T01:31:05.176Z,979.58
2022-09-06T01:32:05.028Z,979.58
2022-09-06T01:33:04.974Z,979.56
2022-09-06T01:34:04.887Z,979.56
2022-09-06T01:35:04.812Z,979.58
2022-09-06T01:36:25.703Z,979.53
2022-09-06T01:37:10.385Z,979.54
2022-09-06T01:38:04.569Z,979.53
2022-09-06T01:39:04.491Z,979.57
2022-09-06T01:40:04.474Z,979.56
2022-09-06T01:41:04.342Z,979.55
2022-09-06T01:42:25.241Z,979.56
2022-09-06T01:43:07.870Z,979.57
2022-09-06T01:44:04.113Z,979.57
2022-09-06T01:45:04.032Z,979.57
2022-09-06T01:46:04.018Z,979.56
2022-09-06T01:47:03.894Z,979.53
2022-09-06T01:48:24.865Z,979.56
2022-09-06T01:49:03.722Z,979.54
2022-09-06T01:50:03.651Z,979.56
2022-09-06T01:51:03.577Z,979.56
2022-09-06T01:52:03.492Z,979.54
2022-09-06T01:53:03.410Z,979.57
2022-09-06T01:54:24.317Z,979.56
2022-09-06T01:55:03.262Z,979.56
2022-09-06T01:56:03.172Z,979.57
2022-09-06T01:57:03.109Z,979.58
2022-09-06T01:58:03.028Z,979.56
2022-09-06T01:59:02.948Z,979.54
2022-09-06T02:00:23.867Z,979.52
2022-09-06T02:01:02.889Z,979.53
2022-09-06T02:02:02.753Z,979.53
2022-09-06T02:03:02.654Z,979.52
2022-09-06T02:04:02.563Z,979.50
2022-09-06T02:05:02.483Z,979.50
2022-09-06T02:06:23.400Z,979.47
2022-09-06T02:07:02.341Z,979.49
2022-09-06T02:08:02.253Z,979.53
2022-09-06T02:09:02.191Z,979.55
2022-09-06T02:10:02.105Z,979.53
2022-09-06T02:11:02.037Z,979.53
2022-09-06T02:12:22.916Z,979.53
2022-09-06T02:13:01.873Z,979.50
2022-09-06T02:14:01.793Z,979.49
2022-09-06T02:15:01.714Z,979.50
2022-09-06T02:16:01.627Z,979.47
2022-09-06T02:17:01.632Z,979.49
2022-09-06T02:18:22.522Z,979.49
2022-09-06T02:19:01.417Z,979.43
2022-09-06T02:20:01.336Z,979.40
2022-09-06T02:21:01.255Z,979.43
2022-09-06T02:22:01.169Z,979.44
2022-09-06T02:23:01.097Z,979.48
2022-09-06T02:24:22.005Z,979.46
2022-09-06T02:25:00.948Z,979.44
2022-09-06T02:26:00.873Z,979.44
2022-09-06T02:27:00.776Z,979.43
2022-09-06T02:28:00.701Z,979.43
2022-09-06T02:29:00.618Z,979.43
2022-09-06T02:30:21.542Z,979.47
2022-09-06T02:31:00.486Z,979.48
2022-09-06T02:32:00.396Z,979.48
2022-09-06T02:33:00.328Z,979.51
2022-09-06T02:34:00.238Z,979.48
2022-09-06T02:35:00.184Z,979.47
2022-09-06T02:36:21.078Z,979.43
2022-09-06T02:37:00.018Z,979.42
2022-09-06T02:37:59.932Z,979.40
2022-09-06T02:38:59.853Z,979.43
2022-09-06T02:39:59.848Z,979.44
2022-09-06T02:40:59.690Z,979.47
2022-09-06T02:42:20.604Z,979.50
2022-09-06T02:42:59.557Z,979.50
2022-09-06T02:43:59.483Z,979.51
2022-09-06T02:44:59.405Z,979.48
2022-09-06T02:45:59.417Z,979.50
2022-09-06T02:46:59.234Z,979.48
2022-09-06T02:48:20.143Z,979.45
2022-09-06T02:48:59.080Z,979.45
2022-09-06T02:49:59.010Z,979.46
2022-09-06T02:50:58.929Z,979.45
2022-09-06T02:51:58.856Z,979.44
2022-09-06T02:52:58.763Z,979.42
2022-09-06T02:54:19.679Z,979.41
2022-09-06T02:54:58.609Z,979.42
2022-09-06T02:55:58.534Z,979.38
2022-09-06T02:56:58.471Z,979.41
2022-09-06T02:57:58.381Z,979.36
2022-09-06T02:58:58.296Z,979.38
2022-09-06T03:00:19.225Z,979.37
2022-09-06T03:00:58.237Z,979.35
2022-09-06T03:01:58.177Z,979.37
2022-09-06T03:02:57.989Z,979.35
2022-09-06T03:03:57.912Z,979.37
2022-09-06T03:04:57.849Z,979.37
2022-09-06T03:06:18.747Z,979.39
2022-09-06T03:06:57.698Z,979.35
2022-09-06T03:07:57.614Z,979.35
2022-09-06T03:08:57.531Z,979.39
2022-09-06T03:09:57.459Z,979.39
2022-09-06T03:10:57.379Z,979.43
2022-09-06T03:12:18.274Z,979.42
2022-09-06T03:12:57.215Z,979.44
2022-09-06T03:13:57.141Z,979.43
2022-09-06T03:14:57.069Z,979.46
2022-09-06T03:15:56.993Z,979.46
2022-09-06T03:16:56.935Z,979.46
2022-09-06T03:18:17.830Z,979.46
2022-09-06T03:18:56.763Z,979.48
2022-09-06T03:19:56.689Z,979.48
2022-09-06T03:20:56.589Z,979.46
2022-09-06T03:21:56.535Z,979.43
2022-09-06T03:22:56.437Z,979.41
2022-09-06T03:24:17.352Z,979.42
2022-09-06T03:24:56.283Z,979.38
2022-09-06T03:25:56.219Z,979.39
2022-09-06T03:26:56.133Z,979.36
2022-09-06T03:27:56.058Z,979.37
2022-09-06T03:28:55.987Z,979.33
2022-09-06T03:30:16.883Z,979.37
2022-09-06T03:30:55.909Z,979.32
2022-09-06T03:31:55.747Z,979.28
2022-09-06T03:32:55.679Z,979.27
2022-09-06T03:33:55.588Z,979.26
2022-09-06T03:34:55.506Z,979.29
2022-09-06T03:36:16.421Z,979.26
2022-09-06T03:36:55.356Z,979.25
2022-09-06T03:37:55.294Z,979.27
2022-09-06T03:38:55.204Z,979.28
2022-09-06T03:39:55.295Z,979.29
2022-09-06T03:40:55.042Z,979.30
2022-09-06T03:42:15.953Z,979.24
2022-09-06T03:42:54.892Z,979.27
2022-09-06T03:43:54.814Z,979.21
2022-09-06T03:44:54.727Z,979.20
2022-09-06T03:45:54.713Z,979.17
2022-09-06T03:46:54.589Z,979.17
2022-09-06T03:48:15.494Z,979.16
2022-09-06T03:48:54.417Z,979.20
2022-09-06T03:49:54.347Z,979.14
2022-09-06T03:50:54.282Z,979.15
2022-09-06T03:51:54.195Z,979.17
2022-09-06T03:52:54.108Z,979.16
2022-09-06T03:54:15.023Z,979.16
2022-09-06T03:54:53.958Z,979.14
2022-09-06T03:55:53.887Z,979.13
2022-09-06T03:56:53.807Z,979.08
2022-09-06T03:57:53.720Z,979.08
2022-09-06T03:58:53.639Z,979.04
2022-09-06T04:00:14.554Z,979.07
2022-09-06T04:00:53.529Z,979.10
2022-09-06T04:01:53.456Z,979.10
2022-09-06T04:02:53.327Z,979.08
2022-09-06T04:03:53.259Z,979.11
2022-09-06T04:04:53.183Z,979.08
2022-09-06T04:06:14.090Z,979.11
2022-09-06T04:06:53.034Z,979.08
2022-09-06T04:07:52.944Z,979.13
2022-09-06T04:08:52.869Z,979.14
2022-09-06T04:09:52.791Z,979.12
2022-09-06T04:10:52.710Z,979.15
2022-09-06T04:12:13.642Z,979.12
2022-09-06T04:12:52.560Z,979.14
2022-09-06T04:13:52.487Z,979.09
2022-09-06T04:14:52.406Z,979.13
2022-09-06T04:15:52.334Z,979.13
2022-09-06T04:16:52.275Z,979.14
2022-09-06T04:18:13.152Z,979.14
2022-09-06T04:18:52.101Z,979.14
2022-09-06T04:19:52.023Z,979.16
2022-09-06T04:20:51.946Z,979.19
2022-09-06T04:21:51.868Z,979.23
2022-09-06T04:22:51.781Z,979.19
2022-09-06T04:24:12.690Z,979.20
2022-09-06T04:24:51.622Z,979.17
2022-09-06T04:25:51.569Z,979.21
2022-09-06T04:26:51.480Z,979.19
2022-09-06T04:27:51.395Z,979.18
2022-09-06T04:28:51.326Z,979.18
2022-09-06T04:30:12.232Z,979.19
2022-09-06T04:30:51.167Z,979.16
2022-09-06T04:31:51.114Z,979.19
2022-09-06T04:32:51.007Z,979.20
2022-09-06T04:33:50.939Z,979.24
2022-09-06T04:34:50.855Z,979.22
2022-09-06T04:36:11.763Z,979.22
2022-09-06T04:36:50.690Z,979.17
2022-09-06T04:37:50.624Z,979.10
2022-09-06T04:38:50.565Z,979.13
2022-09-06T04:39:50.538Z,979.11
2022-09-06T04:40:50.380Z,979.14
2022-09-06T04:42:11.303Z,979.14
2022-09-06T04:42:50.235Z,979.14
2022-09-06T04:43:50.160Z,979.13
2022-09-06T04:44:50.092Z,979.09
2022-09-06T04:45:50.075Z,979.07
2022-09-06T04:46:49.916Z,979.09
2022-09-06T04:48:10.828Z,979.06
2022-09-06T04:48:49.781Z,979.06
2022-09-06T04:49:49.698Z,979.04
2022-09-06T04:50:49.615Z,979.10
2022-09-06T04:51:49.536Z,979.14
2022-09-06T04:52:49.459Z,979.12
2022-09-06T04:54:10.371Z,979.12
2022-09-06T04:54:49.302Z,979.20
2022-09-06T04:55:49.248Z,979.18
2022-09-06T04:56:49.154Z,979.17
2022-09-06T04:57:51.220Z,979.21
2022-09-06T04:58:48.996Z,979.17
2022-09-06T05:00:09.902Z,979.16
2022-09-06T05:00:48.874Z,979.18
2022-09-06T05:01:48.839Z,979.16
2022-09-06T05:02:48.697Z,979.14
2022-09-06T05:03:48.616Z,979.13
2022-09-06T05:04:48.531Z,979.11
2022-09-06T05:06:09.440Z,979.10
2022-09-06T05:06:48.372Z,979.10
2022-09-06T05:07:48.320Z,979.12
2022-09-06T05:08:48.225Z,979.14
2022-09-06T05:09:48.153Z,979.16
2022-09-06T05:10:48.063Z,979.14
2022-09-06T05:12:08.999Z,979.15
2022-09-06T05:12:47.916Z,979.17
2022-09-06T05:13:47.870Z,979.17
2022-09-06T05:14:47.768Z,979.21
2022-09-06T05:15:47.679Z,979.19
2022-09-06T05:16:47.657Z,979.13
2022-09-06T05:18:10.097Z,979.13
2022-09-06T05:18:47.464Z,979.15
2022-09-06T05:19:47.374Z,979.14
2022-09-06T05:20:47.296Z,979.13
2022-09-06T05:21:47.236Z,979.17
2022-09-06T05:22:47.153Z,979.19
2022-09-06T05:24:08.077Z,979.23
2022-09-06T05:24:46.997Z,979.27
2022-09-06T05:25:46.938Z,979.36
2022-09-06T05:26:46.846Z,979.42
2022-09-06T05:27:46.762Z,979.47
2022-09-06T05:28:46.692Z,979.49
2022-09-06T05:30:07.588Z,979.51
2022-09-06T05:30:46.532Z,979.53
2022-09-06T05:31:46.502Z,979.52
2022-09-06T05:32:46.375Z,979.51
2022-09-06T05:33:46.302Z,979.46
2022-09-06T05:34:46.232Z,979.44
2022-09-06T05:36:07.135Z,979.37
2022-09-06T05:36:46.067Z,979.45
2022-09-06T05:37:45.986Z,979.46
2022-09-06T05:38:45.915Z,979.54
2022-09-06T05:39:45.949Z,979.63
2022-09-06T05:40:45.758Z,979.63
2022-09-06T05:42:06.665Z,979.72
2022-09-06T05:42:45.602Z,979.73
2022-09-06T05:43:45.536Z,979.73
2022-09-06T05:44:45.450Z,979.74
2022-09-06T05:45:45.467Z,979.71
2022-09-06T05:46:45.311Z,979.67
2022-09-06T05:48:06.204Z,979.70
2022-09-06T05:48:45.143Z,979.65
2022-09-06T05:49:45.082Z,979.61
2022-09-06T05:50:44.987Z,979.58
2022-09-06T05:51:44.929Z,979.52
2022-09-06T05:52:44.846Z,979.48
2022-09-06T05:54:05.765Z,979.43
2022-09-06T05:54:44.698Z,979.38
2022-09-06T05:55:44.609Z,979.36
2022-09-06T05:56:44.531Z,979.41
2022-09-06T05:57:44.477Z,979.45
2022-09-06T05:58:44.380Z,979.52
2022-09-06T06:00:05.278Z,979.54
2022-09-06T06:00:44.227Z,979.46
2022-09-06T06:01:44.257Z,979.46
2022-09-06T06:02:44.149Z,979.48
2022-09-06T06:03:43.998Z,979.48
2022-09-06T06:04:43.912Z,979.55
2022-09-06T06:06:04.839Z,979.62
2022-09-06T06:06:43.769Z,979.66
2022-09-06T06:07:43.694Z,979.67
2022-09-06T06:08:43.628Z,979.60
2022-09-06T06:09:43.532Z,979.57
2022-09-06T06:10:43.460Z,979.55
2022-09-06T06:12:04.370Z,979.54
2022-09-06T06:12:43.299Z,979.58
2022-09-06T06:13:43.232Z,979.59
2022-09-06T06:14:43.174Z,979.59
2022-09-06T06:15:43.074Z,979.53
2022-09-06T06:16:43.040Z,979.58
2022-09-06T06:18:03.904Z,979.58
2022-09-06T06:18:42.841Z,979.56
2022-09-06T06:19:42.763Z,979.53
2022-09-06T06:20:42.699Z,979.49
2022-09-06T06:21:42.629Z,979.51
2022-09-06T06:22:42.534Z,979.44
2022-09-06T06:24:03.445Z,979.36
2022-09-06T06:24:42.389Z,979.29
2022-09-06T06:25:42.320Z,979.32
2022-09-06T06:26:42.227Z,979.28
2022-09-06T06:27:42.158Z,979.30
2022-09-06T06:28:42.085Z,979.30
2022-09-06T06:30:03.000Z,979.40
2022-09-06T06:30:41.917Z,979.33
2022-09-06T06:31:41.860Z,979.36
2022-09-06T06:32:41.786Z,979.33
2022-09-06T06:33:41.709Z,979.36
2022-09-06T06:34:41.629Z,979.30
2022-09-06T06:36:02.533Z,979.29
2022-09-06T06:36:41.471Z,979.30
2022-09-06T06:37:41.400Z,979.32
2022-09-06T06:38:41.316Z,979.29
2022-09-06T06:39:41.290Z,979.32
2022-09-06T06:40:41.167Z,979.27
2022-09-06T06:42:02.062Z,979.26
2022-09-06T06:42:41.006Z,979.26
2022-09-06T06:43:40.931Z,979.27
2022-09-06T06:44:40.868Z,979.23
2022-09-06T06:45:40.851Z,979.21
2022-09-06T06:46:40.716Z,979.23
2022-09-06T06:48:01.616Z,979.14
2022-09-06T06:48:40.559Z,979.16
2022-09-06T06:49:40.490Z,979.15
2022-09-06T06:50:40.397Z,979.10
2022-09-06T06:51:40.316Z,979.11
2022-09-06T06:52:40.247Z,979.12
2022-09-06T06:54:01.154Z,979.12
2022-09-06T06:54:40.099Z,979.13
2022-09-06T06:55:40.019Z,979.13
2022-09-06T06:56:39.941Z,979.17
2022-09-06T06:57:39.868Z,979.17
2022-09-06T06:58:39.788Z,979.18
2022-09-06T07:00:00.698Z,979.26
2022-09-06T07:00:39.718Z,979.26
2022-09-06T07:01:39.819Z,979.25
2022-09-06T07:02:39.484Z,979.26
2022-09-06T07:03:39.409Z,979.25
2022-09-06T07:04:39.339Z,979.23
2022-09-06T07:06:15.634Z,979.25
2022-09-06T07:07:41.057Z,979.18
2022-09-06T07:08:39.026Z,979.19
2022-09-06T07:10:38.880Z,979.18
2022-09-06T07:11:59.784Z,979.22
2022-09-06T07:12:38.724Z,979.22
2022-09-06T07:13:38.647Z,979.24
2022-09-06T07:14:38.585Z,979.25
2022-09-06T07:15:38.495Z,979.26
2022-09-06T07:16:38.471Z,979.26
2022-09-06T07:17:59.323Z,979.26
2022-09-06T07:18:38.284Z,979.27
2022-09-06T07:21:38.390Z,979.34
2022-09-06T07:22:37.965Z,979.35
2022-09-06T07:24:06.751Z,979.31
2022-09-06T07:24:37.845Z,979.29
2022-09-06T07:25:37.744Z,979.35
2022-09-06T07:26:38.208Z,979.34
2022-09-06T07:27:52.895Z,979.37
2022-09-06T07:28:37.528Z,979.37
2022-09-06T07:29:58.419Z,979.40
2022-09-06T07:30:37.370Z,979.42
2022-09-06T07:32:37.220Z,979.44
2022-09-06T07:33:37.129Z,979.43
2022-09-06T07:34:37.066Z,979.43
2022-09-06T07:35:57.981Z,979.42
2022-09-06T07:36:36.918Z,979.44
2022-09-06T07:37:36.845Z,979.45
2022-09-06T07:38:36.766Z,979.48
2022-09-06T07:39:36.718Z,979.50
2022-09-06T07:40:36.603Z,979.48
2022-09-06T07:41:57.513Z,979.48
2022-09-06T07:42:36.890Z,979.41
2022-09-06T07:43:36.387Z,979.44
2022-09-06T07:44:36.302Z,979.44
2022-09-06T07:45:36.226Z,979.38
2022-09-06T07:46:36.214Z,979.42
2022-09-06T07:47:57.296Z,979.40
2022-09-06T07:48:36.015Z,979.43
2022-09-06T07:49:35.931Z,979.45
2022-09-06T07:50:52.624Z,979.48
2022-09-06T07:51:35.775Z,979.39
2022-09-06T07:54:19.284Z,979.38
2022-09-06T07:54:35.554Z,979.37
2022-09-06T07:55:35.490Z,979.36
2022-09-06T07:56:35.414Z,979.40
2022-09-06T07:57:35.332Z,979.38
2022-09-06T07:58:35.254Z,979.38
2022-09-06T07:59:56.157Z,979.41
2022-09-06T08:00:35.221Z,979.38
2022-09-06T08:01:35.027Z,979.42
2022-09-06T08:02:35.041Z,979.42
2022-09-06T08:03:34.894Z,979.43
2022-09-06T08:04:34.812Z,979.41
2022-09-06T08:06:11.158Z,979.46
2022-09-06T08:09:34.433Z,979.41
2022-09-06T08:10:34.358Z,979.40
2022-09-06T08:11:55.265Z,979.36
2022-09-06T08:12:34.215Z,979.37
2022-09-06T08:13:34.146Z,979.37
2022-09-06T08:14:34.074Z,979.37
2022-09-06T08:15:33.989Z,979.34
2022-09-06T08:16:34.002Z,979.33
2022-09-06T08:17:54.827Z,979.33
2022-09-06T08:18:33.780Z,979.30
2022-09-06T08:19:33.708Z,979.33
2022-09-06T08:20:33.639Z,979.35
2022-09-06T08:21:33.551Z,979.35
2022-09-06T08:22:33.473Z,979.35
2022-09-06T08:23:54.393Z,979.32
2022-09-06T08:24:33.343Z,979.34
2022-09-06T08:25:33.263Z,979.33
2022-09-06T08:26:33.206Z,979.36
2022-09-06T08:27:33.110Z,979.38
2022-09-06T08:28:33.034Z,979.38
2022-09-06T08:29:53.958Z,979.43
2022-09-06T08:30:32.888Z,979.41
2022-09-06T08:31:32.868Z,979.42
2022-09-06T08:32:32.741Z,979.41
2022-09-06T08:33:32.683Z,979.38
2022-09-06T08:34:32.597Z,979.36
2022-09-06T08:35:53.498Z,979.32
2022-09-06T08:36:32.471Z,979.36
2022-09-06T08:37:32.384Z,979.33
2022-09-06T08:38:32.306Z,979.35
2022-09-06T08:39:32.317Z,979.34
2022-09-06T08:40:32.167Z,979.35
2022-09-06T08:41:53.088Z,979.34
2022-09-06T08:42:32.019Z,979.38
2022-09-06T08:43:31.949Z,979.39
2022-09-06T08:45:31.797Z,979.41
2022-09-06T08:46:31.780Z,979.41
2022-09-06T08:47:52.640Z,979.37
2022-09-06T08:48:31.592Z,979.40
2022-09-06T08:49:31.503Z,979.33
2022-09-06T08:50:31.430Z,979.33
2022-09-06T08:51:33.373Z,979.37
2022-09-06T08:52:31.295Z,979.39
2022-09-06T08:53:52.210Z,979.37
2022-09-06T08:54:31.142Z,979.38
2022-09-06T08:55:31.079Z,979.39
2022-09-06T08:56:31.001Z,979.44
2022-09-06T08:57:30.922Z,979.46
2022-09-06T08:58:30.865Z,979.50
2022-09-06T08:59:51.758Z,979.53
2022-09-06T09:00:30.751Z,979.57
2022-09-06T09:01:30.653Z,979.59
2022-09-06T09:02:30.633Z,979.58
2022-09-06T09:03:30.487Z,979.65
2022-09-06T09:04:30.420Z,979.61
2022-09-06T09:05:51.328Z,979.58
2022-09-06T09:06:30.299Z,979.58
2022-09-06T09:07:30.212Z,979.58
2022-09-06T09:08:30.272Z,979.56
2022-09-06T09:09:30.067Z,979.54
2022-09-06T09:10:30.018Z,979.48
2022-09-06T09:11:50.900Z,979.50
2022-09-06T09:12:29.848Z,979.52
2022-09-06T09:13:29.777Z,979.50
2022-09-06T09:14:29.714Z,979.46
2022-09-06T09:15:29.646Z,979.45
2022-09-06T09:16:29.652Z,979.47
2022-09-06T09:17:50.487Z,979.46
2022-09-06T09:18:29.543Z,979.40
2022-09-06T09:19:29.552Z,979.41
2022-09-06T09:20:29.289Z,979.37
2022-09-06T09:21:30.992Z,979.36
2022-09-06T09:22:29.130Z,979.33
2022-09-06T09:23:50.040Z,979.32
2022-09-06T09:24:28.988Z,979.36
2022-09-06T09:25:28.922Z,979.33
2022-09-06T09:26:28.847Z,979.33
2022-09-06T09:27:28.779Z,979.31
2022-09-06T09:28:28.777Z,979.33
2022-09-06T09:31:28.555Z,979.27
2022-09-06T09:32:28.428Z,979.24
2022-09-06T09:33:28.453Z,979.22
2022-09-06T09:34:28.290Z,979.25
2022-09-06T09:35:49.209Z,979.22
2022-09-06T09:36:28.148Z,979.21
2022-09-06T09:38:28.124Z,979.20
2022-09-06T09:39:27.946Z,979.15
2022-09-06T09:40:27.863Z,979.19
2022-09-06T09:41:48.761Z,979.19
2022-09-06T09:42:27.713Z,979.19
2022-09-06T09:43:27.647Z,979.21
2022-09-06T09:44:27.584Z,979.17
2022-09-06T09:45:27.501Z,979.15
2022-09-06T09:46:27.493Z,979.10
2022-09-06T09:47:48.341Z,979.07
2022-09-06T09:48:27.447Z,979.03
2022-09-06T09:49:27.220Z,979.03
2022-09-06T09:50:27.163Z,978.98
2022-09-06T09:51:27.883Z,978.97
2022-09-06T09:52:27.008Z,978.94
2022-09-06T09:53:47.931Z,978.93
2022-09-06T09:54:26.877Z,978.94
2022-09-06T09:55:26.792Z,978.93
2022-09-06T09:56:26.750Z,978.93
2022-09-06T09:57:26.797Z,978.90
2022-09-06T09:58:26.683Z,978.92
2022-09-06T09:59:47.503Z,978.88
2022-09-06T10:00:26.497Z,978.89
2022-09-06T10:01:26.379Z,978.88
2022-09-06T10:02:26.317Z,978.87
2022-09-06T10:03:26.325Z,978.89
2022-09-06T10:05:47.248Z,978.85
2022-09-06T10:07:25.952Z,978.85
2022-09-06T10:08:25.892Z,978.83
2022-09-06T10:09:25.838Z,978.84
2022-09-06T10:10:25.749Z,978.87
2022-09-06T10:11:46.670Z,978.91
2022-09-06T10:12:25.629Z,978.91
2022-09-06T10:13:25.556Z,978.89
2022-09-06T10:14:25.480Z,978.86
2022-09-06T10:15:25.408Z,978.90
2022-09-06T10:16:25.375Z,978.89
2022-09-06T10:17:46.259Z,978.90
2022-09-06T10:18:25.194Z,978.87
2022-09-06T10:19:25.122Z,978.87
2022-09-06T10:20:25.061Z,978.89
2022-09-06T10:21:24.988Z,978.89
2022-09-06T10:22:24.921Z,978.91
